Time;durP1;ratioP1;P1;durP2;ratioP2;P2;SDS_P1;SDS_P2;PMS_P1;PMS_P2;Temp;Humidity;BMP_temperature;BMP_pressure;BME280_temperature;BME280_humidity;BME280_pressure;Samples;Min_cycle;Max_cycle;Signal;HPM_P1;HPM_P2
2022/09/05 00:02:23;;;;;;;;;;;;;;;22.57;44.88;101330.56;5122254;28;20047;-82
2022/09/05 00:05:21;;;;;;;0.38;0.38;;;;;;;22.55;44.56;101333.34;5143932;28;19922;-83
2022/09/05 00:08:18;;;;;;;2.38;1.55;;;;;;;22.54;44.66;101328.09;5145032;28;20050;-83
2022/09/05 00:11:09;;;;;;;0.85;0.50;;;;;;;22.52;44.46;101324.69;5161259;28;20073;-81
2022/09/05 00:14:26;;;;;;;0.73;0.73;;;;;;;22.47;44.96;101330.34;5159954;28;20053;-83
2022/09/05 00:17:16;;;;;;;1.33;0.80;;;;;;;22.48;44.84;101321.34;5142660;28;20039;-83
2022/09/05 00:20:14;;;;;;;0.30;0.30;;;;;;;22.40;45.18;101329.03;5119201;28;20137;-83
2022/09/05 00:23:10;;;;;;;0.25;0.25;;;;;;;22.41;45.16;101325.41;5161125;28;20039;-82
2022/09/05 00:25:51;;;;;;;0.40;0.40;;;;;;;22.38;44.93;101330.94;5135795;28;20050;-83
2022/09/05 00:28:51;;;;;;;0.47;0.47;;;;;;;22.32;45.26;101321.50;5144910;28;20039;-83
2022/09/05 00:31:37;;;;;;;0.90;0.82;;;;;;;22.32;45.21;101319.69;5139572;28;20039;-82
2022/09/05 00:34:36;;;;;;;1.15;1.02;;;;;;;22.31;45.35;101322.47;5148332;28;20083;-82
2022/09/05 00:37:10;;;;;;;0.50;0.50;;;;;;;22.29;45.18;101322.56;5168529;28;20043;-83
2022/09/05 00:39:42;;;;;;;0.40;0.40;;;;;;;22.23;45.25;101317.63;5144899;28;20058;-83
2022/09/05 00:42:17;;;;;;;0.65;0.65;;;;;;;22.19;45.62;101320.63;5158159;28;20074;-82
2022/09/05 00:44:57;;;;;;;0.30;0.30;;;;;;;22.19;45.57;101321.47;5173057;28;20122;-82
2022/09/05 00:47:45;;;;;;;0.35;0.35;;;;;;;22.17;45.62;101313.56;5178567;28;20030;-82
2022/09/05 00:50:25;;;;;;;0.30;0.30;;;;;;;22.12;45.80;101314.81;5145288;28;20041;-82
2022/09/05 00:53:15;;;;;;;0.75;0.75;;;;;;;22.09;45.85;101317.72;5130937;28;20038;-83
2022/09/05 00:56:05;;;;;;;0.73;0.73;;;;;;;22.04;45.67;101320.69;5142920;28;20034;-82
2022/09/05 00:59:25;;;;;;;0.30;0.30;;;;;;;22.01;45.83;101323.56;5167276;28;20063;-82
2022/09/05 01:02:13;;;;;;;0.57;0.57;;;;;;;21.94;45.83;101319.56;5124054;28;20051;-82
2022/09/05 01:05:12;;;;;;;0.60;0.60;;;;;;;21.89;46.39;101319.03;5116055;28;20031;-82
2022/09/05 01:08:13;;;;;;;0.60;0.60;;;;;;;21.85;46.16;101324.56;5135765;28;20102;-82
2022/09/05 01:11:11;;;;;;;0.68;0.68;;;;;;;21.83;46.02;101321.13;5165000;28;20102;-83
2022/09/05 01:14:13;;;;;;;0.50;0.50;;;;;;;21.86;46.18;101330.75;5162690;28;20103;-82
2022/09/05 01:16:52;;;;;;;0.60;0.60;;;;;;;21.83;46.05;101325.63;5146401;28;20039;-83
2022/09/05 01:19:50;;;;;;;0.20;0.20;;;;;;;21.82;46.25;101330.09;5165685;28;20054;-82
2022/09/05 01:22:54;;;;;;;7.68;0.65;;;;;;;21.76;46.34;101335.84;5138485;28;20423;-82
2022/09/05 01:25:49;;;;;;;1.40;1.08;;;;;;;21.66;46.33;101332.91;5177415;28;20050;-82
2022/09/05 01:28:31;;;;;;;0.75;0.63;;;;;;;21.56;47.18;101339.75;5118329;28;20042;-82
2022/09/05 01:31:20;;;;;;;0.43;0.43;;;;;;;21.59;46.64;101334.28;5136314;28;20057;-82
2022/09/05 01:34:17;;;;;;;0.63;0.63;;;;;;;21.56;46.56;101334.41;5165365;28;20038;-82
2022/09/05 01:37:10;;;;;;;0.57;0.57;;;;;;;21.54;46.39;101337.19;5118563;28;20129;-82
2022/09/05 01:39:53;;;;;;;0.70;0.55;;;;;;;21.54;46.86;101330.97;5094247;29;20036;-82
2022/09/05 01:42:49;;;;;;;0.73;0.73;;;;;;;21.53;46.86;101324.81;5121739;28;20032;-82
2022/09/05 01:45:38;;;;;;;0.30;0.30;;;;;;;21.48;47.00;101331.38;5164350;28;20050;-81
2022/09/05 01:48:29;;;;;;;0.30;0.30;;;;;;;21.42;46.70;101326.44;5120603;28;20061;-84
2022/09/05 01:51:33;;;;;;;0.45;0.45;;;;;;;21.43;46.58;101322.81;5147017;28;20407;-81
2022/09/05 01:54:22;;;;;;;0.50;0.50;;;;;;;21.41;46.67;101319.38;5148490;28;20583;-82
2022/09/05 01:57:23;;;;;;;0.73;0.73;;;;;;;21.36;47.04;101323.19;5166158;28;20023;-81
2022/09/05 02:00:11;;;;;;;0.30;0.30;;;;;;;21.32;47.10;101328.84;5139065;28;20114;-82
2022/09/05 02:03:21;;;;;;;1.10;0.40;;;;;;;21.28;46.87;101328.16;5111780;28;20501;-82
2022/09/05 02:06:21;;;;;;;0.20;0.20;;;;;;;21.28;47.09;101322.81;5121061;28;20055;-83
2022/09/05 02:09:16;;;;;;;;;;;;;;;;;;;;;
2022/09/05 02:11:55;;;;;;;5.57;0.50;;;;;;;21.22;47.18;101323.22;5134347;28;20046;-81
2022/09/05 02:14:37;;;;;;;0.32;0.32;;;;;;;21.20;47.31;101323.31;5133603;28;20074;-81
2022/09/05 02:17:33;;;;;;;0.40;0.40;;;;;;;21.19;47.16;101318.09;5133629;28;20157;-83
2022/09/05 02:20:16;;;;;;;0.35;0.35;;;;;;;21.17;47.23;101320.81;5157794;28;20035;-81
2022/09/05 02:23:04;;;;;;;0.30;0.30;;;;;;;21.15;47.66;101330.75;5150286;28;20038;-83
2022/09/05 02:26:02;;;;;;;0.40;0.40;;;;;;;21.10;47.49;101329.31;5143083;28;20050;-83
2022/09/05 02:29:10;;;;;;;1.20;1.10;;;;;;;21.06;47.36;101329.50;5135585;28;20083;-83
2022/09/05 02:31:49;;;;;;;0.95;0.90;;;;;;;21.05;47.84;101335.78;5139367;28;20386;-81
2022/09/05 02:34:33;;;;;;;0.65;0.65;;;;;;;21.04;47.93;101326.06;5124265;28;20653;-82
2022/09/05 02:37:08;;;;;;;;;;;;;;;20.98;47.61;101323.78;5126366;28;20057;-82
2022/09/05 02:39:46;;;;;;;0.35;0.35;;;;;;;20.99;48.06;101324.66;5157231;28;19932;-82
2022/09/05 02:42:31;;;;;;;0.50;0.50;;;;;;;20.98;47.95;101322.94;5138871;28;20036;-82
2022/09/05 02:45:24;;;;;;;0.73;0.40;;;;;;;20.94;48.27;101335.59;5126195;28;20035;-83
2022/09/05 02:48:08;;;;;;;0.43;0.43;;;;;;;20.86;48.00;101335.22;5151495;28;20043;-81
2022/09/05 02:50:42;;;;;;;0.80;0.80;;;;;;;20.82;48.02;101323.00;5128524;28;20534;-82
2022/09/05 02:53:17;;;;;;;0.57;0.30;;;;;;;20.78;48.21;101333.00;5150164;28;20122;-82
2022/09/05 02:56:19;;;;;;;0.30;0.30;;;;;;;20.81;48.49;101337.28;5148040;28;20035;-82
2022/09/05 02:59:08;;;;;;;1.02;0.57;;;;;;;20.76;48.55;101332.22;5166828;28;20042;-81
2022/09/05 03:02:51;;;;;;;;;;;;;;;;;;;;;
2022/09/05 03:06:54;;;;;;;;;;;;;;;;;;;;;
2022/09/05 03:10:39;;;;;;;;;;;;;;;;;;;;;
2022/09/05 03:13:55;;;;;;;0.93;0.65;;;;;;;20.64;48.56;101331.13;5088071;28;20039;-81
2022/09/05 03:16:48;;;;;;;;;;;;;;;;;;;;;
2022/09/05 03:19:36;;;;;;;7.57;1.10;;;;;;;20.51;48.70;101335.50;5115794;28;20039;-80
2022/09/05 03:22:50;;;;;;;0.45;0.45;;;;;;;20.44;48.58;101335.88;5136000;28;20055;-80
2022/09/05 03:25:33;;;;;;;0.35;0.35;;;;;;;20.43;48.85;101343.94;5116194;29;20023;-80
2022/09/05 03:28:22;;;;;;;0.50;0.50;;;;;;;20.40;48.62;101344.13;5136232;28;20070;-80
2022/09/05 03:31:18;;;;;;;0.20;0.20;;;;;;;20.41;49.15;101336.03;5126924;28;20031;-80
2022/09/05 03:34:23;;;;;;;0.65;0.65;;;;;;;20.38;49.11;101336.19;5124783;28;20050;-80
2022/09/05 03:37:22;;;;;;;0.40;0.40;;;;;;;20.35;49.01;101333.72;5110569;28;20399;-80
2022/09/05 03:40:16;;;;;;;0.95;0.82;;;;;;;20.33;49.19;101338.28;5137429;28;20046;-80
2022/09/05 03:43:12;;;;;;;7.05;0.52;;;;;;;20.27;48.94;101334.16;5120811;28;20049;-80
2022/09/05 03:46:08;;;;;;;0.30;0.30;;;;;;;20.25;49.16;101335.22;5123911;28;20042;-80
2022/09/05 03:48:57;;;;;;;1.35;1.25;;;;;;;20.21;49.06;101336.31;5121751;28;20042;-80
2022/09/05 03:51:45;;;;;;;0.20;0.20;;;;;;;20.17;49.19;101340.13;5148025;28;20038;-80
2022/09/05 03:54:36;;;;;;;0.60;0.60;;;;;;;20.16;49.42;101335.75;5140279;28;20039;-80
2022/09/05 03:57:44;;;;;;;1.10;1.05;;;;;;;20.15;49.50;101339.34;5177954;28;20034;-80
2022/09/05 04:00:20;;;;;;;0.45;0.45;;;;;;;20.11;49.19;101344.88;5158549;28;20043;-80
2022/09/05 04:03:12;;;;;;;0.40;0.40;;;;;;;20.07;49.60;101331.81;5091417;28;20054;-80
2022/09/05 04:06:14;;;;;;;1.42;1.33;;;;;;;20.07;49.85;101338.00;5164509;28;20472;-79
2022/09/05 04:08:47;;;;;;;0.60;0.60;;;;;;;20.03;49.54;101333.81;5135554;28;20035;-79
2022/09/05 04:11:32;;;;;;;0.50;0.50;;;;;;;19.99;49.58;101336.72;5156119;28;20038;-80
2022/09/05 04:14:19;;;;;;;0.60;0.60;;;;;;;20.00;49.57;101341.97;5157300;28;20039;-81
2022/09/05 04:17:10;;;;;;;0.82;0.80;;;;;;;19.99;49.97;101340.22;5192037;28;20042;-81
2022/09/05 04:19:50;;;;;;;0.52;0.52;;;;;;;19.95;49.98;101347.53;5140279;28;20389;-80
2022/09/05 04:22:29;;;;;;;1.52;1.42;;;;;;;19.92;50.04;101339.72;5156754;28;20061;-79
2022/09/05 04:25:15;;;;;;;1.58;0.75;;;;;;;19.91;49.97;101347.81;5140553;28;20030;-79
2022/09/05 04:27:54;;;;;;;0.20;0.20;;;;;;;19.85;50.05;101342.84;5143425;28;20042;-79
2022/09/05 04:30:31;;;;;;;0.93;0.85;;;;;;;19.81;50.06;101342.97;5161331;28;20684;-81
2022/09/05 04:33:27;;;;;;;0.90;0.85;;;;;;;19.80;49.95;101351.88;5139954;28;20095;-83
2022/09/05 04:36:32;;;;;;;0.25;0.25;;;;;;;19.82;50.33;101347.34;5143728;28;20038;-80
2022/09/05 04:39:18;;;;;;;0.20;0.20;;;;;;;19.79;50.26;101344.84;5160841;28;20042;-82
2022/09/05 04:42:16;;;;;;;0.60;0.60;;;;;;;19.75;50.13;101342.47;5178778;28;20043;-82
2022/09/05 04:44:53;;;;;;;0.70;0.70;;;;;;;19.71;50.18;101341.75;5128208;28;20085;-82
2022/09/05 04:47:35;;;;;;;0.35;0.35;;;;;;;19.63;50.34;101342.19;5139910;28;20035;-82
2022/09/05 04:50:13;;;;;;;0.70;0.70;;;;;;;19.61;50.19;101352.06;5144234;28;20050;-81
2022/09/05 04:52:53;;;;;;;0.77;0.77;;;;;;;19.60;50.07;101347.69;5140818;28;20578;-81
2022/09/05 04:55:54;;;;;;;0.68;0.68;;;;;;;19.64;50.20;101346.56;5130351;28;20116;-82
2022/09/05 04:58:53;;;;;;;0.45;0.45;;;;;;;19.59;50.32;101353.94;5109013;28;20065;-82
2022/09/05 05:01:36;;;;;;;0.30;0.30;;;;;;;19.54;50.20;101360.47;5125755;28;20096;-82
2022/09/05 05:04:16;;;;;;;1.65;1.55;;;;;;;19.52;50.27;101362.38;5176162;28;20117;-82
2022/09/05 05:07:19;;;;;;;0.40;0.40;;;;;;;19.50;50.35;101371.28;5107680;28;20459;-82
2022/09/05 05:10:13;;;;;;;;;;;;;;;;;;;;;
2022/09/05 05:13:04;;;;;;;1.63;0.80;;;;;;;19.43;50.36;101372.56;5149387;28;20607;-82
2022/09/05 05:16:03;;;;;;;0.50;0.50;;;;;;;19.37;50.62;101370.25;5131576;28;20168;-82
2022/09/05 05:18:41;;;;;;;3.10;1.05;;;;;;;19.32;50.52;101369.63;5121012;28;20531;-81
2022/09/05 05:21:18;;;;;;;0.73;0.65;;;;;;;19.27;51.28;101369.00;5142648;28;20065;-82
2022/09/05 05:23:56;;;;;;;0.60;0.60;;;;;;;19.25;50.77;101373.53;5146773;28;20030;-82
2022/09/05 05:26:39;;;;;;;0.60;0.55;;;;;;;19.22;51.37;101371.03;5127685;28;20025;-82
2022/09/05 05:29:42;;;;;;;1.65;1.00;;;;;;;19.20;51.37;101373.78;5188383;28;20030;-82
2022/09/05 05:32:35;;;;;;;3.35;0.55;;;;;;;19.23;51.29;101380.75;5192052;28;20045;-82
2022/09/05 05:35:07;;;;;;;;;;;;;;;19.21;51.75;101374.66;5160880;28;20066;-82
2022/09/05 05:37:47;;;;;;;1.02;0.85;;;;;;;19.22;51.47;101374.56;5166981;28;19967;-83
2022/09/05 05:40:27;;;;;;;0.47;0.47;;;;;;;19.23;51.50;101372.75;5178101;28;20027;-83
2022/09/05 05:43:37;;;;;;;0.80;0.80;;;;;;;19.28;51.11;101381.38;5161581;28;20051;-84
2022/09/05 05:46:14;;;;;;;0.52;0.52;;;;;;;19.27;51.31;101379.66;5090409;29;20031;-84
2022/09/05 05:48:46;;;;;;;0.38;0.32;;;;;;;19.26;51.59;101377.94;5146853;28;20049;-84
2022/09/05 05:51:25;;;;;;;0.55;0.55;;;;;;;19.28;51.37;101381.38;5151819;28;20030;-84
2022/09/05 05:54:09;;;;;;;2.20;1.40;;;;;;;19.29;51.57;101383.94;5137295;28;20500;-81
2022/09/05 05:57:36;;;;;;;0.73;0.73;;;;;;;19.32;51.49;101382.91;5115569;28;20579;-84
2022/09/05 06:00:10;;;;;;;0.50;0.50;;;;;;;19.35;51.51;101393.41;5085232;28;20576;-81
2022/09/05 06:02:49;;;;;;;0.20;0.20;;;;;;;19.34;51.60;101387.19;5097041;28;20528;-82
2022/09/05 06:05:44;;;;;;;0.77;0.73;;;;;;;19.36;51.59;101387.16;5120620;28;20030;-82
2022/09/05 06:08:49;;;;;;;4.57;1.05;;;;;;;19.39;51.59;101386.97;5127408;28;20039;-82
2022/09/05 06:11:43;;;;;;;0.55;0.55;;;;;;;19.37;51.65;101388.88;5129310;28;20096;-82
2022/09/05 06:14:37;;;;;;;0.65;0.45;;;;;;;19.38;51.72;101387.06;5140507;28;20126;-82
2022/09/05 06:17:30;;;;;;;0.35;0.35;;;;;;;19.32;52.19;101385.56;5110236;28;20158;-82
2022/09/05 06:20:38;;;;;;;0.30;0.30;;;;;;;19.32;51.85;101388.25;5121335;28;20062;-82
2022/09/05 06:23:12;;;;;;;0.60;0.60;;;;;;;19.30;52.11;101391.00;5153626;28;20121;-82
2022/09/05 06:25:57;;;;;;;1.08;1.00;;;;;;;19.30;52.14;101391.00;5149459;28;20097;-82
2022/09/05 06:28:49;;;;;;;0.57;0.57;;;;;;;19.27;53.13;101395.63;5126050;28;20097;-82
2022/09/05 06:31:48;;;;;;;0.40;0.40;;;;;;;19.24;53.30;101399.31;5138981;28;20437;-82
2022/09/05 06:34:31;;;;;;;0.98;0.88;;;;;;;19.27;53.61;101398.28;5180813;28;20243;-82
2022/09/05 06:37:25;;;;;;;8.15;1.90;;;;;;;19.32;53.75;101409.53;5136164;28;20593;-83
2022/09/05 06:40:02;;;;;;;0.20;0.20;;;;;;;19.41;54.05;101405.53;5099502;28;20089;-83
2022/09/05 06:42:41;;;;;;;0.85;0.60;;;;;;;19.55;54.05;101405.63;5149565;28;20035;-83
2022/09/05 06:45:24;;;;;;;0.50;0.50;;;;;;;19.61;54.65;101404.44;5134935;28;20093;-83
2022/09/05 06:48:05;;;;;;;0.60;0.60;;;;;;;19.73;54.23;101406.44;5125391;28;20127;-83
2022/09/05 06:51:16;;;;;;;0.55;0.55;;;;;;;19.85;54.01;101396.94;5148841;28;20125;-83
2022/09/05 06:54:01;;;;;;;0.40;0.40;;;;;;;19.97;53.99;101398.03;5144383;28;20065;-83
2022/09/05 06:56:58;;;;;;;0.38;0.35;;;;;;;20.06;55.24;101402.88;5149405;28;20500;-83
2022/09/05 07:00:10;;;;;;;0.60;0.60;;;;;;;20.12;54.07;101399.84;5126297;28;20045;-83
2022/09/05 07:02:58;;;;;;;1.42;0.80;;;;;;;20.08;53.96;101398.31;5150243;28;20086;-83
2022/09/05 07:05:38;;;;;;;0.40;0.40;;;;;;;20.12;53.34;101399.84;5148974;28;20526;-83
2022/09/05 07:08:12;;;;;;;0.30;0.30;;;;;;;20.16;53.51;101397.88;5144271;28;20046;-83
2022/09/05 07:10:56;;;;;;;0.55;0.55;;;;;;;20.16;54.02;101402.34;5151697;28;20595;-83
2022/09/05 07:13:37;;;;;;;0.50;0.50;;;;;;;20.17;53.74;101398.75;5146558;28;20045;-82
2022/09/05 07:16:17;;;;;;;1.10;1.00;;;;;;;20.21;53.50;101394.94;5149020;28;20038;-83
2022/09/05 07:18:55;;;;;;;1.90;1.15;;;;;;;20.23;55.35;101398.38;5139200;28;20054;-83
2022/09/05 07:21:34;;;;;;;0.25;0.25;;;;;;;20.19;55.39;101404.84;5148017;28;23175;-83
2022/09/05 07:24:18;;;;;;;0.40;0.40;;;;;;;20.26;53.92;101412.38;5134256;28;20042;-83
2022/09/05 07:26:50;;;;;;;0.30;0.30;;;;;;;20.30;54.35;101415.72;5164027;28;20033;-83
2022/09/05 07:29:30;;;;;;;0.30;0.30;;;;;;;20.32;54.26;101415.66;5159499;28;20033;-83
2022/09/05 07:32:05;;;;;;;1.00;0.75;;;;;;;20.35;54.06;101420.81;5134862;28;20041;-83
2022/09/05 07:34:36;;;;;;;1.00;0.90;;;;;;;20.38;54.16;101416.16;5154377;28;20037;-83
2022/09/05 07:37:24;;;;;;;1.10;0.95;;;;;;;20.40;54.00;101418.75;5133171;28;20123;-83
2022/09/05 07:39:58;;;;;;;0.77;0.77;;;;;;;20.43;54.23;101418.56;5155771;28;20019;-83
2022/09/05 07:42:44;;;;;;;0.20;0.20;;;;;;;20.44;53.61;101405.16;5152951;28;20054;-83
2022/09/05 07:45:22;;;;;;;1.00;0.85;;;;;;;20.50;55.50;101413.72;5154541;28;20072;-83
2022/09/05 07:48:15;;;;;;;0.40;0.40;;;;;;;20.51;54.83;101410.97;5145950;28;20038;-83
2022/09/05 07:50:51;;;;;;;0.70;0.70;;;;;;;20.54;54.65;101409.94;5145925;28;20121;-83
2022/09/05 07:53:24;;;;;;;0.52;0.52;;;;;;;20.55;54.64;101416.97;5152330;28;20106;-83
2022/09/05 07:56:01;;;;;;;0.35;0.35;;;;;;;20.56;54.78;101414.25;5163473;28;20415;-82
2022/09/05 07:58:51;;;;;;;0.30;0.30;;;;;;;20.65;54.25;101418.16;5157285;28;20039;-82
2022/09/05 08:01:21;;;;;;;0.32;0.32;;;;;;;20.70;53.28;101420.56;5152752;28;20172;-83
2022/09/05 08:03:56;;;;;;;0.30;0.30;;;;;;;20.72;53.82;101413.34;5149804;28;20133;-83
2022/09/05 08:06:26;;;;;;;0.30;0.30;;;;;;;20.78;54.58;101406.81;5159741;28;20604;-83
2022/09/05 08:09:06;;;;;;;10.95;0.85;;;;;;;20.86;53.81;101416.06;5137584;28;20035;-83
2022/09/05 08:11:37;;;;;;;0.30;0.30;;;;;;;20.88;54.13;101414.19;5141679;28;20129;-83
2022/09/05 08:14:35;;;;;;;6.00;0.63;;;;;;;20.88;54.20;101413.31;5150862;28;20650;-82
2022/09/05 08:17:14;;;;;;;0.20;0.20;;;;;;;20.96;53.73;101413.69;5152260;28;20431;-83
2022/09/05 08:20:18;;;;;;;0.30;0.30;;;;;;;21.06;53.92;101401.53;5133862;28;20125;-83
2022/09/05 08:23:12;;;;;;;4.75;0.40;;;;;;;21.07;53.33;101400.59;5119416;28;20044;-83
2022/09/05 08:25:50;;;;;;;0.32;0.32;;;;;;;21.10;53.33;101407.53;5151616;28;20045;-83
2022/09/05 08:28:24;;;;;;;0.60;0.60;;;;;;;21.16;53.49;101395.63;5149782;28;20038;-83
2022/09/05 08:31:02;;;;;;;0.20;0.20;;;;;;;21.18;53.95;101401.75;5158241;28;20108;-83
2022/09/05 08:33:36;;;;;;;5.93;0.57;;;;;;;21.29;53.27;101391.25;5158606;28;20039;-83
2022/09/05 08:36:46;;;;;;;0.35;0.35;;;;;;;21.32;53.78;101390.22;5162721;28;20113;-82
2022/09/05 08:39:22;;;;;;;0.40;0.40;;;;;;;21.39;52.97;101392.41;5155713;28;20512;-83
2022/09/05 08:42:17;;;;;;;0.73;0.73;;;;;;;21.38;52.93;101390.69;5158015;28;20192;-83
2022/09/05 08:45:02;;;;;;;0.75;0.57;;;;;;;21.46;52.92;101392.88;5154236;28;20058;-83
2022/09/05 08:47:51;;;;;;;0.57;0.55;;;;;;;21.49;52.86;101386.50;5150020;28;20772;-83
2022/09/05 08:50:40;;;;;;;0.38;0.38;;;;;;;21.56;53.06;101395.84;5159487;28;20034;-83
2022/09/05 08:53:46;;;;;;;0.82;0.68;;;;;;;21.64;52.64;101396.22;5150439;28;20030;-83
2022/09/05 08:56:21;;;;;;;0.47;0.43;;;;;;;21.67;52.44;101385.38;5100448;28;20045;-83
2022/09/05 08:59:17;;;;;;;0.93;0.93;;;;;;;21.77;52.83;101384.78;5147565;28;20493;-83
2022/09/05 09:01:54;;;;;;;0.60;0.40;;;;;;;21.84;52.51;101386.94;5147949;28;20033;-84
2022/09/05 09:04:37;;;;;;;0.40;0.40;;;;;;;21.88;52.17;101386.75;5148719;28;20045;-83
2022/09/05 09:07:26;;;;;;;1.35;1.02;;;;;;;22.04;51.84;101386.59;5136785;28;20050;-83
2022/09/05 09:10:25;;;;;;;1.80;1.00;;;;;;;22.02;51.98;101382.22;5148505;28;20436;-83
2022/09/05 09:13:05;;;;;;;0.40;0.40;;;;;;;22.11;51.63;101377.22;5154682;28;20038;-83
2022/09/05 09:15:50;;;;;;;0.25;0.25;;;;;;;22.16;51.62;101381.31;5157449;28;20272;-83
2022/09/05 09:18:36;;;;;;;0.40;0.40;;;;;;;22.21;51.35;101381.03;5149294;28;20110;-85
2022/09/05 09:21:53;;;;;;;0.77;0.45;;;;;;;22.26;51.52;101383.38;5134907;28;20022;-83
2022/09/05 09:24:32;;;;;;;0.93;0.85;;;;;;;22.31;50.71;101378.63;5138239;28;20056;-83
2022/09/05 09:27:31;;;;;;;0.55;0.55;;;;;;;22.47;50.78;101381.13;5135705;28;20054;-83
2022/09/05 09:30:04;;;;;;;1.35;1.00;;;;;;;22.54;50.27;101384.25;5126892;28;20683;-83
2022/09/05 09:32:47;;;;;;;0.85;0.75;;;;;;;22.55;49.58;101372.63;5136207;28;20035;-83
2022/09/05 09:35:45;;;;;;;1.55;1.23;;;;;;;22.60;50.02;101371.31;5114064;28;20107;-83
2022/09/05 09:38:33;;;;;;;0.28;0.28;;;;;;;22.64;49.75;101372.00;5149550;28;20064;-84
2022/09/05 09:41:22;;;;;;;1.77;1.05;;;;;;;22.69;50.06;101374.31;5140175;28;20112;-83
2022/09/05 09:44:25;;;;;;;0.25;0.25;;;;;;;22.82;50.27;101369.00;5145113;28;20049;-83
2022/09/05 09:46:56;;;;;;;0.73;0.73;;;;;;;22.93;50.26;101363.78;5154269;28;20045;-82
2022/09/05 09:49:29;;;;;;;0.20;0.20;;;;;;;22.98;48.71;101366.13;5144532;28;20026;-83
2022/09/05 09:52:18;;;;;;;0.20;0.20;;;;;;;23.15;47.02;101356.91;5150434;28;20772;-83
2022/09/05 09:55:30;;;;;;;0.50;0.50;;;;;;;23.11;47.86;101361.63;5149693;28;20479;-82
2022/09/05 09:58:02;;;;;;;4.15;1.13;;;;;;;23.22;47.47;101358.25;5141394;28;20030;-83
2022/09/05 10:01:16;;;;;;;0.32;0.32;;;;;;;23.21;48.36;101357.38;5147907;28;20517;-83
2022/09/05 10:03:46;;;;;;;;;;;;;;;23.31;48.62;101356.72;5060242;28;20053;-83
2022/09/05 10:06:32;;;;;;;0.68;0.68;;;;;;;23.49;47.54;101349.19;5150527;28;20283;-84
2022/09/05 10:09:12;;;;;;;0.35;0.35;;;;;;;23.54;47.70;101355.94;5147075;28;20416;-83
2022/09/05 10:11:55;;;;;;;0.35;0.35;;;;;;;23.83;46.67;101352.97;5151730;28;20652;-84
2022/09/05 10:14:44;;;;;;;;;;;;;;;23.72;45.89;101348.38;5133553;28;20139;-84
2022/09/05 10:17:42;;;;;;;0.30;0.30;;;;;;;23.74;46.39;101338.41;5161354;28;20273;-83
2022/09/05 10:20:20;;;;;;;0.40;0.40;;;;;;;23.80;44.28;101339.78;5139834;28;20188;-82
2022/09/05 10:22:57;;;;;;;0.32;0.32;;;;;;;23.84;44.48;101335.88;5159231;28;20050;-82
2022/09/05 10:25:52;;;;;;;0.30;0.30;;;;;;;24.00;41.88;101337.50;5153839;28;20065;-84
2022/09/05 10:28:37;;;;;;;0.22;0.22;;;;;;;24.02;38.83;101331.03;5139681;28;20056;-83
2022/09/05 10:31:31;;;;;;;0.40;0.40;;;;;;;24.12;40.35;101325.00;5156367;28;20168;-83
2022/09/05 10:34:08;;;;;;;0.40;0.40;;;;;;;24.19;40.29;101320.88;5151958;28;20054;-83
2022/09/05 10:36:47;;;;;;;0.80;0.80;;;;;;;24.10;42.05;101330.44;5136950;28;20040;-84
2022/09/05 10:39:24;;;;;;;0.30;0.30;;;;;;;24.19;41.30;101326.25;5149795;28;20049;-83
2022/09/05 10:42:05;;;;;;;0.30;0.30;;;;;;;24.46;39.83;101323.28;5137266;28;20132;-83
2022/09/05 10:44:41;;;;;;;0.30;0.30;;;;;;;24.44;40.25;101314.50;5154967;28;20111;-83
2022/09/05 10:47:40;;;;;;;0.77;0.77;;;;;;;24.47;39.75;101316.94;5149920;28;20049;-84
2022/09/05 10:50:31;;;;;;;0.85;0.75;;;;;;;24.52;39.83;101317.44;5148836;28;20091;-82
2022/09/05 10:53:18;;;;;;;0.20;0.20;;;;;;;24.68;37.44;101316.28;5153723;28;20069;-84
2022/09/05 10:56:07;;;;;;;0.40;0.40;;;;;;;24.79;38.31;101318.16;5158623;28;20030;-83
2022/09/05 10:59:16;;;;;;;0.25;0.25;;;;;;;24.74;37.34;101310.47;5140462;28;20049;-83
2022/09/05 11:02:06;;;;;;;0.20;0.20;;;;;;;24.77;39.28;101304.00;5153456;28;20057;-83
2022/09/05 11:04:57;;;;;;;0.32;0.32;;;;;;;25.14;34.21;101295.69;5155754;28;20508;-83
2022/09/05 11:08:19;;;;;;;0.32;0.32;;;;;;;25.00;37.35;101294.09;5156913;28;20038;-84
2022/09/05 11:11:12;;;;;;;0.28;0.28;;;;;;;24.97;37.75;101284.47;5120841;28;20129;-84
2022/09/05 11:13:49;;;;;;;0.30;0.30;;;;;;;25.02;35.60;101281.41;5156991;28;20046;-83
2022/09/05 11:16:35;;;;;;;0.20;0.20;;;;;;;25.26;32.50;101288.47;5116673;28;20085;-83
2022/09/05 11:19:38;;;;;;;3.72;0.75;;;;;;;25.38;33.47;101279.44;5161070;28;20061;-83
2022/09/05 11:22:12;;;;;;;1.15;0.73;;;;;;;25.28;34.23;101286.53;5132789;28;20263;-83
2022/09/05 11:24:57;;;;;;;0.20;0.20;;;;;;;25.42;32.52;101283.59;5167472;28;20042;-83
2022/09/05 11:27:36;;;;;;;0.20;0.20;;;;;;;25.35;34.08;101279.69;5159266;28;20042;-83
2022/09/05 11:30:13;;;;;;;0.25;0.25;;;;;;;25.36;34.26;101275.19;5159169;28;20030;-83
2022/09/05 11:32:58;;;;;;;0.28;0.28;;;;;;;25.50;34.17;101271.38;5158363;28;20492;-84
2022/09/05 11:36:01;;;;;;;0.30;0.30;;;;;;;25.49;34.02;101275.06;5157908;28;20035;-83
2022/09/05 11:38:43;;;;;;;0.20;0.20;;;;;;;25.71;31.23;101271.44;5155205;28;20437;-83
2022/09/05 11:41:52;;;;;;;0.30;0.30;;;;;;;25.66;33.28;101268.28;5151710;28;20046;-83
2022/09/05 11:44:44;;;;;;;0.20;0.20;;;;;;;25.64;33.62;101273.78;5153358;28;20086;-83
2022/09/05 11:47:17;;;;;;;0.30;0.30;;;;;;;25.76;33.08;101272.75;5134500;28;20053;-83
2022/09/05 11:50:03;;;;;;;0.20;0.20;;;;;;;25.92;32.59;101268.78;5150012;28;20122;-82
2022/09/05 11:52:46;;;;;;;1.20;1.02;;;;;;;25.99;34.07;101274.50;5135589;28;20100;-83
2022/09/05 11:55:41;;;;;;;0.20;0.20;;;;;;;26.01;34.47;101262.66;5152569;28;20537;-83
2022/09/05 11:58:32;;;;;;;0.20;0.20;;;;;;;26.30;33.29;101269.25;5137301;28;20038;-83
2022/09/05 12:01:08;;;;;;;0.20;0.20;;;;;;;26.31;34.23;101271.84;5168239;28;20030;-83
2022/09/05 12:03:38;;;;;;;0.30;0.30;;;;;;;26.48;33.67;101264.97;5150543;28;20038;-83
2022/09/05 12:06:37;;;;;;;0.20;0.20;;;;;;;26.58;31.60;101256.97;5171647;28;20530;-83
2022/09/05 12:09:52;;;;;;;0.20;0.20;;;;;;;26.69;31.98;101251.50;5162733;28;20043;-83
2022/09/05 12:12:45;;;;;;;0.20;0.20;;;;;;;26.73;32.23;101254.78;5153197;28;20042;-82
2022/09/05 12:15:33;;;;;;;0.10;0.10;;;;;;;26.91;31.98;101243.41;5170808;28;20081;-83
2022/09/05 12:18:10;;;;;;;0.35;0.35;;;;;;;27.07;30.65;101250.97;5158061;28;20136;-84
2022/09/05 12:20:49;;;;;;;0.20;0.20;;;;;;;27.06;32.31;101247.44;5159222;28;20483;-84
2022/09/05 12:23:45;;;;;;;0.40;0.40;;;;;;;27.10;32.45;101248.00;5155103;28;20050;-84
2022/09/05 12:26:37;;;;;;;0.30;0.30;;;;;;;27.23;32.78;101237.81;5148874;28;20014;-82
2022/09/05 12:29:18;;;;;;;0.20;0.20;;;;;;;27.44;30.71;101236.91;5175807;28;20042;-83
2022/09/05 12:31:57;;;;;;;0.20;0.20;;;;;;;27.70;29.42;101228.28;5134830;28;20137;-84
2022/09/05 12:34:56;;;;;;;0.43;0.43;;;;;;;27.72;31.38;101229.00;5152467;28;20500;-83
2022/09/05 12:37:43;;;;;;;0.20;0.20;;;;;;;28.03;28.34;101223.44;5156104;28;20038;-84
2022/09/05 12:40:27;;;;;;;3.95;1.20;;;;;;;27.86;31.43;101223.16;5146598;28;20038;-83
2022/09/05 12:43:04;;;;;;;0.13;0.13;;;;;;;27.96;31.71;101221.31;5169700;28;20060;-83
2022/09/05 12:45:56;;;;;;;0.47;0.47;;;;;;;28.02;31.84;101225.25;5148863;28;20026;-83
2022/09/05 12:48:51;;;;;;;0.20;0.20;;;;;;;28.21;29.28;101232.53;5134894;28;20069;-83
2022/09/05 12:51:28;;;;;;;0.35;0.35;;;;;;;28.21;30.05;101228.97;5134731;28;20042;-84
2022/09/05 12:54:08;;;;;;;0.60;0.60;;;;;;;28.25;30.99;101220.44;5169691;28;20053;-84
2022/09/05 12:56:51;;;;;;;0.20;0.20;;;;;;;28.36;31.03;101218.56;5136441;28;20033;-83
2022/09/05 12:59:25;;;;;;;0.25;0.25;;;;;;;28.63;28.27;101220.47;5150093;28;20053;-84
2022/09/05 13:02:02;;;;;;;0.30;0.30;;;;;;;28.59;30.83;101219.91;5154907;28;20035;-84
2022/09/05 13:04:45;;;;;;;0.35;0.32;;;;;;;28.65;29.54;101223.00;5147937;28;20070;-83
2022/09/05 13:07:22;;;;;;;0.47;0.47;;;;;;;28.94;28.83;101213.97;5135344;28;20069;-83
2022/09/05 13:09:58;;;;;;;0.22;0.22;;;;;;;28.71;30.00;101208.97;5132855;28;20033;-82
2022/09/05 13:12:53;;;;;;;0.20;0.20;;;;;;;28.77;29.70;101207.50;5150341;28;20049;-83
2022/09/05 13:15:34;;;;;;;0.43;0.43;;;;;;;28.79;29.86;101200.09;5134424;28;20026;-83